Kezdőlap
METAR-TAF:

METAR-TAF

Repülőterek :

Pécs, Magyarország

földrajzi szélesség: 46-06N, földrajzi hosszúság: 018-14E, magasság: 201 m

Jelenlegi meteorológiai megfigyelések

A jelentés 4 órával és 36 perccel ezelõtt készült, 17:45 UTC
Szélcsend
Hőmérséklet 1°C
Páratartalom 86%
Légköri nyomás 1014 hPa
Látótávolság 10 km, vagy több
felhőtlen 1500 m magasságban, és nincs gomolyfelhõ

METAR: LHPP 111745Z 00000KT CAVOK 01/M01 Q1014

Idő: 23:21 (22:21 UTC)

Előrejelzés

A jelentés 8 órával és 6 perccel ezelõtt készült, 14:15 UTC
Az előrejelzés 11-én 15 óra UTC és 11-én 24 óra UTC között érvényes
Keleti szél 5 kt
Látótávolság 10 km, vagy több
felhőtlen 1500 m magasságban, és nincs gomolyfelhõ
11-én 18 óra UTC és 11-én 21 óra UTC között fokozatosan kialakuló
Látótávolság: 5000 m
Szakadozott felhőzet 1500 lábon
Párásság

TAF: LHPP 111415Z 1115/1124 09005KT CAVOK BECMG 1118/1121 5000 BR BKN015

Meteorológiai megfigyelések és előrejelzések több, mint 4000 repülőtéren (METAR és TAF jelentéseket).

A térképen piros és sárga pontok jelzik az elérhető meteorológiai állomásokat.

Mozgassa az egeret a pont fölött, hogy megjelenjen az állomás neve.

Azután kattintson az időjárási megfigyelések és előrejelzések megtekintéséhez.

A térkép megváltoztatása: kattintson a fekete keresztel jelölt zöld gombra ráközelítéshez, a vonallal jelölt zöld gombra távolításhoz, vagy a zöld nyilakra a szomszédos térképek eléréséhez.


METAR-TAF: